<?xml version="1.0" encoding="UTF-8"?>
<gpx creator="Wikiloc - https://www.wikiloc.com" version="1.1" xmlns="http://www.topografix.com/GPX/1/1" xmlns:xsi="http://www.w3.org/2001/XMLSchema-instance" xsi:schemaLocation="http://www.topografix.com/GPX/1/1 http://www.topografix.com/GPX/1/1/gpx.xsd">
  <metadata>
    <name>Wikiloc - Gr 73 etapa 1 Herrera de pisuerga- S. Ma. de mave</name>
    <link href="https://www.wikiloc.com/hiking-trails/gr-73-etapa-1-herrera-de-pisuerga-s-ma-de-mave-4714693">
      <text>Gr 73 etapa 1 Herrera de pisuerga- S. Ma. de mave - Wikiloc on Wikiloc</text>
    </link>
    <time>2013-06-22T17:50:26Z</time>
  </metadata>
  <trk>
    <name>Gr 73 etapa 1 Herrera de pisuerga- S. Ma. de mave - Wikiloc</name>
    <cmt></cmt>
    <desc></desc>
    <trkseg>
      <trkpt lat="42.598709" lon="-4.316582">
        <ele>836.631</ele>
        <time>2013-06-22T10:29:59Z</time>
      </trkpt>
      <trkpt lat="42.598937" lon="-4.316756">
        <ele>836.661</ele>
        <time>2013-06-22T10:33:14Z</time>
      </trkpt>
      <trkpt lat="42.599454" lon="-4.316805">
        <ele>836.507</ele>
        <time>2013-06-22T10:34:08Z</time>
      </trkpt>
      <trkpt lat="42.599548" lon="-4.316279">
        <ele>836.007</ele>
        <time>2013-06-22T10:34:50Z</time>
      </trkpt>
      <trkpt lat="42.599428" lon="-4.315941">
        <ele>835.937</ele>
        <time>2013-06-22T10:35:11Z</time>
      </trkpt>
      <trkpt lat="42.599446" lon="-4.315055">
        <ele>837.220</ele>
        <time>2013-06-22T10:36:20Z</time>
      </trkpt>
      <trkpt lat="42.599712" lon="-4.314644">
        <ele>836.894</ele>
        <time>2013-06-22T10:39:17Z</time>
      </trkpt>
      <trkpt lat="42.600750" lon="-4.314780">
        <ele>837.067</ele>
        <time>2013-06-22T10:40:41Z</time>
      </trkpt>
      <trkpt lat="42.601159" lon="-4.314597">
        <ele>836.599</ele>
        <time>2013-06-22T10:41:23Z</time>
      </trkpt>
      <trkpt lat="42.602219" lon="-4.314681">
        <ele>837.092</ele>
        <time>2013-06-22T10:42:44Z</time>
      </trkpt>
      <trkpt lat="42.603326" lon="-4.314516">
        <ele>837.516</ele>
        <time>2013-06-22T10:44:20Z</time>
      </trkpt>
      <trkpt lat="42.603729" lon="-4.314623">
        <ele>836.867</ele>
        <time>2013-06-22T10:44:53Z</time>
      </trkpt>
      <trkpt lat="42.604729" lon="-4.314426">
        <ele>838.981</ele>
        <time>2013-06-22T10:46:29Z</time>
      </trkpt>
      <trkpt lat="42.605336" lon="-4.314662">
        <ele>838.619</ele>
        <time>2013-06-22T10:48:26Z</time>
      </trkpt>
      <trkpt lat="42.605245" lon="-4.314872">
        <ele>838.307</ele>
        <time>2013-06-22T10:48:59Z</time>
      </trkpt>
      <trkpt lat="42.605464" lon="-4.315028">
        <ele>838.960</ele>
        <time>2013-06-22T10:49:44Z</time>
      </trkpt>
      <trkpt lat="42.605501" lon="-4.314883">
        <ele>838.913</ele>
        <time>2013-06-22T10:50:53Z</time>
      </trkpt>
      <trkpt lat="42.605889" lon="-4.314842">
        <ele>839.157</ele>
        <time>2013-06-22T10:52:11Z</time>
      </trkpt>
      <trkpt lat="42.606856" lon="-4.314914">
        <ele>839.380</ele>
        <time>2013-06-22T10:53:35Z</time>
      </trkpt>
      <trkpt lat="42.608175" lon="-4.314790">
        <ele>839.992</ele>
        <time>2013-06-22T10:55:29Z</time>
      </trkpt>
      <trkpt lat="42.608319" lon="-4.314890">
        <ele>839.435</ele>
        <time>2013-06-22T10:55:53Z</time>
      </trkpt>
      <trkpt lat="42.609954" lon="-4.314626">
        <ele>839.189</ele>
        <time>2013-06-22T10:58:35Z</time>
      </trkpt>
      <trkpt lat="42.610958" lon="-4.314648">
        <ele>840.092</ele>
        <time>2013-06-22T10:59:56Z</time>
      </trkpt>
      <trkpt lat="42.611540" lon="-4.314869">
        <ele>839.573</ele>
        <time>2013-06-22T11:00:38Z</time>
      </trkpt>
      <trkpt lat="42.611938" lon="-4.314829">
        <ele>839.620</ele>
        <time>2013-06-22T11:01:17Z</time>
      </trkpt>
      <trkpt lat="42.613398" lon="-4.315733">
        <ele>839.507</ele>
        <time>2013-06-22T11:03:32Z</time>
      </trkpt>
      <trkpt lat="42.614230" lon="-4.315846">
        <ele>839.043</ele>
        <time>2013-06-22T11:04:44Z</time>
      </trkpt>
      <trkpt lat="42.614747" lon="-4.315537">
        <ele>840.026</ele>
        <time>2013-06-22T11:05:29Z</time>
      </trkpt>
      <trkpt lat="42.615301" lon="-4.315530">
        <ele>840.040</ele>
        <time>2013-06-22T11:06:14Z</time>
      </trkpt>
      <trkpt lat="42.615421" lon="-4.315299">
        <ele>840.073</ele>
        <time>2013-06-22T11:06:32Z</time>
      </trkpt>
      <trkpt lat="42.615849" lon="-4.315338">
        <ele>840.035</ele>
        <time>2013-06-22T11:07:05Z</time>
      </trkpt>
      <trkpt lat="42.616256" lon="-4.315127">
        <ele>840.368</ele>
        <time>2013-06-22T11:07:38Z</time>
      </trkpt>
      <trkpt lat="42.617036" lon="-4.315063">
        <ele>840.382</ele>
        <time>2013-06-22T11:08:53Z</time>
      </trkpt>
      <trkpt lat="42.617522" lon="-4.314915">
        <ele>840.748</ele>
        <time>2013-06-22T11:09:35Z</time>
      </trkpt>
      <trkpt lat="42.617650" lon="-4.314711">
        <ele>840.161</ele>
        <time>2013-06-22T11:09:47Z</time>
      </trkpt>
      <trkpt lat="42.618075" lon="-4.314831">
        <ele>841.017</ele>
        <time>2013-06-22T11:10:20Z</time>
      </trkpt>
      <trkpt lat="42.618237" lon="-4.314657">
        <ele>840.907</ele>
        <time>2013-06-22T11:10:38Z</time>
      </trkpt>
      <trkpt lat="42.618451" lon="-4.314707">
        <ele>841.078</ele>
        <time>2013-06-22T11:10:53Z</time>
      </trkpt>
      <trkpt lat="42.618584" lon="-4.314475">
        <ele>840.921</ele>
        <time>2013-06-22T11:11:11Z</time>
      </trkpt>
      <trkpt lat="42.618837" lon="-4.314580">
        <ele>841.015</ele>
        <time>2013-06-22T11:11:32Z</time>
      </trkpt>
      <trkpt lat="42.618922" lon="-4.314448">
        <ele>841.148</ele>
        <time>2013-06-22T11:11:41Z</time>
      </trkpt>
      <trkpt lat="42.619327" lon="-4.314456">
        <ele>841.910</ele>
        <time>2013-06-22T11:12:14Z</time>
      </trkpt>
      <trkpt lat="42.619885" lon="-4.314010">
        <ele>842.683</ele>
        <time>2013-06-22T11:14:35Z</time>
      </trkpt>
      <trkpt lat="42.619959" lon="-4.314156">
        <ele>842.767</ele>
        <time>2013-06-22T11:15:02Z</time>
      </trkpt>
      <trkpt lat="42.619972" lon="-4.313969">
        <ele>842.989</ele>
        <time>2013-06-22T11:24:08Z</time>
      </trkpt>
      <trkpt lat="42.620215" lon="-4.314066">
        <ele>843.006</ele>
        <time>2013-06-22T11:25:02Z</time>
      </trkpt>
      <trkpt lat="42.620601" lon="-4.313966">
        <ele>842.726</ele>
        <time>2013-06-22T11:25:41Z</time>
      </trkpt>
      <trkpt lat="42.620759" lon="-4.313797">
        <ele>843.007</ele>
        <time>2013-06-22T11:25:59Z</time>
      </trkpt>
      <trkpt lat="42.623013" lon="-4.313093">
        <ele>843.922</ele>
        <time>2013-06-22T11:29:17Z</time>
      </trkpt>
      <trkpt lat="42.625774" lon="-4.313277">
        <ele>844.745</ele>
        <time>2013-06-22T11:33:41Z</time>
      </trkpt>
      <trkpt lat="42.626359" lon="-4.312978">
        <ele>846.679</ele>
        <time>2013-06-22T11:34:35Z</time>
      </trkpt>
      <trkpt lat="42.626559" lon="-4.312673">
        <ele>846.982</ele>
        <time>2013-06-22T11:35:05Z</time>
      </trkpt>
      <trkpt lat="42.626640" lon="-4.312790">
        <ele>846.984</ele>
        <time>2013-06-22T11:35:32Z</time>
      </trkpt>
      <trkpt lat="42.627657" lon="-4.311643">
        <ele>848.047</ele>
        <time>2013-06-22T11:38:32Z</time>
      </trkpt>
      <trkpt lat="42.627805" lon="-4.311839">
        <ele>847.361</ele>
        <time>2013-06-22T11:39:14Z</time>
      </trkpt>
      <trkpt lat="42.628296" lon="-4.311083">
        <ele>848.024</ele>
        <time>2013-06-22T11:40:38Z</time>
      </trkpt>
      <trkpt lat="42.630330" lon="-4.309273">
        <ele>847.504</ele>
        <time>2013-06-22T11:44:08Z</time>
      </trkpt>
      <trkpt lat="42.631052" lon="-4.308391">
        <ele>847.214</ele>
        <time>2013-06-22T11:45:32Z</time>
      </trkpt>
      <trkpt lat="42.633576" lon="-4.307205">
        <ele>847.907</ele>
        <time>2013-06-22T11:49:29Z</time>
      </trkpt>
      <trkpt lat="42.634879" lon="-4.306355">
        <ele>848.266</ele>
        <time>2013-06-22T11:51:29Z</time>
      </trkpt>
      <trkpt lat="42.635368" lon="-4.306284">
        <ele>847.829</ele>
        <time>2013-06-22T11:52:17Z</time>
      </trkpt>
      <trkpt lat="42.636155" lon="-4.306371">
        <ele>848.043</ele>
        <time>2013-06-22T11:53:32Z</time>
      </trkpt>
      <trkpt lat="42.638235" lon="-4.306991">
        <ele>848.566</ele>
        <time>2013-06-22T11:56:56Z</time>
      </trkpt>
      <trkpt lat="42.638649" lon="-4.306927">
        <ele>850.138</ele>
        <time>2013-06-22T11:57:26Z</time>
      </trkpt>
      <trkpt lat="42.638857" lon="-4.306722">
        <ele>851.551</ele>
        <time>2013-06-22T11:57:59Z</time>
      </trkpt>
      <trkpt lat="42.638904" lon="-4.306811">
        <ele>851.435</ele>
        <time>2013-06-22T11:58:20Z</time>
      </trkpt>
      <trkpt lat="42.638953" lon="-4.306735">
        <ele>851.567</ele>
        <time>2013-06-22T11:58:32Z</time>
      </trkpt>
      <trkpt lat="42.638814" lon="-4.306857">
        <ele>850.981</ele>
        <time>2013-06-22T12:03:35Z</time>
      </trkpt>
      <trkpt lat="42.638744" lon="-4.306622">
        <ele>850.419</ele>
        <time>2013-06-22T12:03:56Z</time>
      </trkpt>
      <trkpt lat="42.638982" lon="-4.306717">
        <ele>851.507</ele>
        <time>2013-06-22T12:04:32Z</time>
      </trkpt>
      <trkpt lat="42.639126" lon="-4.306533">
        <ele>851.050</ele>
        <time>2013-06-22T12:04:50Z</time>
      </trkpt>
      <trkpt lat="42.640897" lon="-4.306183">
        <ele>851.583</ele>
        <time>2013-06-22T12:07:26Z</time>
      </trkpt>
      <trkpt lat="42.640993" lon="-4.306266">
        <ele>851.257</ele>
        <time>2013-06-22T12:07:38Z</time>
      </trkpt>
      <trkpt lat="42.641513" lon="-4.306062">
        <ele>851.290</ele>
        <time>2013-06-22T12:08:23Z</time>
      </trkpt>
      <trkpt lat="42.642357" lon="-4.305998">
        <ele>850.662</ele>
        <time>2013-06-22T12:09:38Z</time>
      </trkpt>
      <trkpt lat="42.643203" lon="-4.306128">
        <ele>851.955</ele>
        <time>2013-06-22T12:11:05Z</time>
      </trkpt>
      <trkpt lat="42.644318" lon="-4.306612">
        <ele>851.299</ele>
        <time>2013-06-22T12:12:59Z</time>
      </trkpt>
      <trkpt lat="42.644833" lon="-4.306673">
        <ele>852.045</ele>
        <time>2013-06-22T12:13:44Z</time>
      </trkpt>
      <trkpt lat="42.647627" lon="-4.307640">
        <ele>851.547</ele>
        <time>2013-06-22T12:17:56Z</time>
      </trkpt>
      <trkpt lat="42.650978" lon="-4.308464">
        <ele>851.111</ele>
        <time>2013-06-22T12:24:41Z</time>
      </trkpt>
      <trkpt lat="42.653348" lon="-4.309694">
        <ele>851.407</ele>
        <time>2013-06-22T12:28:38Z</time>
      </trkpt>
      <trkpt lat="42.654260" lon="-4.309949">
        <ele>851.588</ele>
        <time>2013-06-22T12:30:14Z</time>
      </trkpt>
      <trkpt lat="42.656754" lon="-4.309715">
        <ele>851.191</ele>
        <time>2013-06-22T12:36:56Z</time>
      </trkpt>
      <trkpt lat="42.657899" lon="-4.309155">
        <ele>851.235</ele>
        <time>2013-06-22T12:38:53Z</time>
      </trkpt>
      <trkpt lat="42.658370" lon="-4.308619">
        <ele>852.748</ele>
        <time>2013-06-22T12:40:23Z</time>
      </trkpt>
      <trkpt lat="42.658534" lon="-4.309067">
        <ele>851.530</ele>
        <time>2013-06-22T12:41:41Z</time>
      </trkpt>
      <trkpt lat="42.658343" lon="-4.308606">
        <ele>853.053</ele>
        <time>2013-06-22T12:42:35Z</time>
      </trkpt>
      <trkpt lat="42.659582" lon="-4.306695">
        <ele>853.987</ele>
        <time>2013-06-22T12:45:59Z</time>
      </trkpt>
      <trkpt lat="42.660193" lon="-4.307590">
        <ele>852.065</ele>
        <time>2013-06-22T12:50:53Z</time>
      </trkpt>
      <trkpt lat="42.660408" lon="-4.307654">
        <ele>852.068</ele>
        <time>2013-06-22T12:51:29Z</time>
      </trkpt>
      <trkpt lat="42.660314" lon="-4.307883">
        <ele>852.014</ele>
        <time>2013-06-22T12:51:53Z</time>
      </trkpt>
      <trkpt lat="42.660454" lon="-4.308165">
        <ele>852.007</ele>
        <time>2013-06-22T12:52:21Z</time>
      </trkpt>
      <trkpt lat="42.660714" lon="-4.307491">
        <ele>851.480</ele>
        <time>2013-06-22T12:53:26Z</time>
      </trkpt>
      <trkpt lat="42.660711" lon="-4.306660">
        <ele>852.063</ele>
        <time>2013-06-22T12:55:08Z</time>
      </trkpt>
      <trkpt lat="42.660885" lon="-4.306352">
        <ele>851.757</ele>
        <time>2013-06-22T12:55:41Z</time>
      </trkpt>
      <trkpt lat="42.660750" lon="-4.306314">
        <ele>851.860</ele>
        <time>2013-06-22T12:56:14Z</time>
      </trkpt>
      <trkpt lat="42.660874" lon="-4.306254">
        <ele>851.412</ele>
        <time>2013-06-22T13:27:43Z</time>
      </trkpt>
      <trkpt lat="42.660764" lon="-4.306242">
        <ele>851.645</ele>
        <time>2013-06-22T13:28:13Z</time>
      </trkpt>
      <trkpt lat="42.660744" lon="-4.306006">
        <ele>851.319</ele>
        <time>2013-06-22T13:28:34Z</time>
      </trkpt>
      <trkpt lat="42.660734" lon="-4.303797">
        <ele>852.785</ele>
        <time>2013-06-22T13:35:46Z</time>
      </trkpt>
      <trkpt lat="42.661662" lon="-4.300115">
        <ele>851.889</ele>
        <time>2013-06-22T13:40:43Z</time>
      </trkpt>
      <trkpt lat="42.661724" lon="-4.298501">
        <ele>856.717</ele>
        <time>2013-06-22T13:42:34Z</time>
      </trkpt>
      <trkpt lat="42.662105" lon="-4.296041">
        <ele>857.407</ele>
        <time>2013-06-22T13:45:13Z</time>
      </trkpt>
      <trkpt lat="42.662598" lon="-4.294543">
        <ele>856.382</ele>
        <time>2013-06-22T13:48:19Z</time>
      </trkpt>
      <trkpt lat="42.663321" lon="-4.293118">
        <ele>855.245</ele>
        <time>2013-06-22T13:50:25Z</time>
      </trkpt>
      <trkpt lat="42.664200" lon="-4.292036">
        <ele>859.369</ele>
        <time>2013-06-22T13:52:19Z</time>
      </trkpt>
      <trkpt lat="42.664975" lon="-4.291584">
        <ele>856.792</ele>
        <time>2013-06-22T13:53:49Z</time>
      </trkpt>
      <trkpt lat="42.666002" lon="-4.291333">
        <ele>855.364</ele>
        <time>2013-06-22T13:55:25Z</time>
      </trkpt>
      <trkpt lat="42.667542" lon="-4.292489">
        <ele>855.267</ele>
        <time>2013-06-22T13:58:22Z</time>
      </trkpt>
      <trkpt lat="42.667327" lon="-4.292740">
        <ele>853.581</ele>
        <time>2013-06-22T13:59:28Z</time>
      </trkpt>
      <trkpt lat="42.667441" lon="-4.292553">
        <ele>854.662</ele>
        <time>2013-06-22T14:01:04Z</time>
      </trkpt>
      <trkpt lat="42.667665" lon="-4.292875">
        <ele>854.683</ele>
        <time>2013-06-22T14:01:37Z</time>
      </trkpt>
      <trkpt lat="42.668370" lon="-4.294825">
        <ele>854.811</ele>
        <time>2013-06-22T14:04:13Z</time>
      </trkpt>
      <trkpt lat="42.668821" lon="-4.297729">
        <ele>854.607</ele>
        <time>2013-06-22T14:07:43Z</time>
      </trkpt>
      <trkpt lat="42.668960" lon="-4.300135">
        <ele>854.440</ele>
        <time>2013-06-22T14:10:34Z</time>
      </trkpt>
      <trkpt lat="42.669553" lon="-4.301498">
        <ele>855.613</ele>
        <time>2013-06-22T14:12:43Z</time>
      </trkpt>
      <trkpt lat="42.668569" lon="-4.302261">
        <ele>860.567</ele>
        <time>2013-06-22T14:15:22Z</time>
      </trkpt>
      <trkpt lat="42.668881" lon="-4.303029">
        <ele>858.070</ele>
        <time>2013-06-22T14:16:55Z</time>
      </trkpt>
      <trkpt lat="42.669494" lon="-4.303893">
        <ele>859.182</ele>
        <time>2013-06-22T14:18:25Z</time>
      </trkpt>
      <trkpt lat="42.669553" lon="-4.305321">
        <ele>863.745</ele>
        <time>2013-06-22T14:21:19Z</time>
      </trkpt>
      <trkpt lat="42.670087" lon="-4.306441">
        <ele>861.729</ele>
        <time>2013-06-22T14:22:49Z</time>
      </trkpt>
      <trkpt lat="42.672934" lon="-4.308918">
        <ele>864.614</ele>
        <time>2013-06-22T14:28:37Z</time>
      </trkpt>
      <trkpt lat="42.674625" lon="-4.312114">
        <ele>876.954</ele>
        <time>2013-06-22T14:33:46Z</time>
      </trkpt>
      <trkpt lat="42.674913" lon="-4.312412">
        <ele>875.709</ele>
        <time>2013-06-22T14:43:58Z</time>
      </trkpt>
      <trkpt lat="42.675624" lon="-4.312297">
        <ele>879.307</ele>
        <time>2013-06-22T14:45:55Z</time>
      </trkpt>
      <trkpt lat="42.676046" lon="-4.312634">
        <ele>880.765</ele>
        <time>2013-06-22T14:46:46Z</time>
      </trkpt>
      <trkpt lat="42.676099" lon="-4.312834">
        <ele>881.598</ele>
        <time>2013-06-22T14:47:07Z</time>
      </trkpt>
      <trkpt lat="42.676323" lon="-4.312880">
        <ele>881.912</ele>
        <time>2013-06-22T14:47:37Z</time>
      </trkpt>
      <trkpt lat="42.677323" lon="-4.312533">
        <ele>889.785</ele>
        <time>2013-06-22T14:49:50Z</time>
      </trkpt>
      <trkpt lat="42.678887" lon="-4.313178">
        <ele>892.587</ele>
        <time>2013-06-22T14:53:52Z</time>
      </trkpt>
      <trkpt lat="42.678769" lon="-4.313207">
        <ele>891.840</ele>
        <time>2013-06-22T14:56:01Z</time>
      </trkpt>
      <trkpt lat="42.680349" lon="-4.313304">
        <ele>904.674</ele>
        <time>2013-06-22T14:58:56Z</time>
      </trkpt>
      <trkpt lat="42.681788" lon="-4.312559">
        <ele>915.268</ele>
        <time>2013-06-22T15:01:46Z</time>
      </trkpt>
      <trkpt lat="42.683328" lon="-4.311482">
        <ele>921.142</ele>
        <time>2013-06-22T15:05:01Z</time>
      </trkpt>
      <trkpt lat="42.683860" lon="-4.311430">
        <ele>920.826</ele>
        <time>2013-06-22T15:05:46Z</time>
      </trkpt>
      <trkpt lat="42.684861" lon="-4.312347">
        <ele>919.707</ele>
        <time>2013-06-22T15:07:58Z</time>
      </trkpt>
      <trkpt lat="42.685863" lon="-4.312595">
        <ele>923.290</ele>
        <time>2013-06-22T15:09:43Z</time>
      </trkpt>
      <trkpt lat="42.686526" lon="-4.311899">
        <ele>930.753</ele>
        <time>2013-06-22T15:11:19Z</time>
      </trkpt>
      <trkpt lat="42.686850" lon="-4.311756">
        <ele>930.667</ele>
        <time>2013-06-22T15:12:01Z</time>
      </trkpt>
      <trkpt lat="42.687208" lon="-4.310262">
        <ele>941.840</ele>
        <time>2013-06-22T15:14:49Z</time>
      </trkpt>
      <trkpt lat="42.687507" lon="-4.309611">
        <ele>947.392</ele>
        <time>2013-06-22T15:16:01Z</time>
      </trkpt>
      <trkpt lat="42.687952" lon="-4.308999">
        <ele>952.375</ele>
        <time>2013-06-22T15:17:01Z</time>
      </trkpt>
      <trkpt lat="42.688224" lon="-4.308994">
        <ele>953.099</ele>
        <time>2013-06-22T15:25:07Z</time>
      </trkpt>
      <trkpt lat="42.691064" lon="-4.311219">
        <ele>977.679</ele>
        <time>2013-06-22T15:32:04Z</time>
      </trkpt>
      <trkpt lat="42.691883" lon="-4.312146">
        <ele>992.905</ele>
        <time>2013-06-22T15:35:55Z</time>
      </trkpt>
      <trkpt lat="42.692688" lon="-4.311820">
        <ele>997.925</ele>
        <time>2013-06-22T15:39:19Z</time>
      </trkpt>
      <trkpt lat="42.692992" lon="-4.311417">
        <ele>1001.807</ele>
        <time>2013-06-22T15:40:16Z</time>
      </trkpt>
      <trkpt lat="42.693764" lon="-4.311402">
        <ele>1003.521</ele>
        <time>2013-06-22T15:41:40Z</time>
      </trkpt>
      <trkpt lat="42.694452" lon="-4.310851">
        <ele>1008.024</ele>
        <time>2013-06-22T15:43:16Z</time>
      </trkpt>
      <trkpt lat="42.695214" lon="-4.310805">
        <ele>1011.158</ele>
        <time>2013-06-22T15:44:37Z</time>
      </trkpt>
      <trkpt lat="42.696809" lon="-4.309136">
        <ele>1010.141</ele>
        <time>2013-06-22T15:49:25Z</time>
      </trkpt>
      <trkpt lat="42.697123" lon="-4.309079">
        <ele>1010.353</ele>
        <time>2013-06-22T15:50:13Z</time>
      </trkpt>
      <trkpt lat="42.697910" lon="-4.309554">
        <ele>1007.196</ele>
        <time>2013-06-22T15:51:49Z</time>
      </trkpt>
      <trkpt lat="42.698133" lon="-4.309869">
        <ele>1006.660</ele>
        <time>2013-06-22T15:52:16Z</time>
      </trkpt>
      <trkpt lat="42.699424" lon="-4.313149">
        <ele>1003.025</ele>
        <time>2013-06-22T15:57:49Z</time>
      </trkpt>
      <trkpt lat="42.700036" lon="-4.313048">
        <ele>1005.126</ele>
        <time>2013-06-22T15:59:19Z</time>
      </trkpt>
      <trkpt lat="42.700363" lon="-4.312680">
        <ele>999.008</ele>
        <time>2013-06-22T16:00:01Z</time>
      </trkpt>
      <trkpt lat="42.701574" lon="-4.312384">
        <ele>991.407</ele>
        <time>2013-06-22T16:02:43Z</time>
      </trkpt>
      <trkpt lat="42.702825" lon="-4.311534">
        <ele>989.786</ele>
        <time>2013-06-22T16:05:28Z</time>
      </trkpt>
      <trkpt lat="42.704078" lon="-4.311021">
        <ele>997.589</ele>
        <time>2013-06-22T16:09:22Z</time>
      </trkpt>
      <trkpt lat="42.705211" lon="-4.310943">
        <ele>987.333</ele>
        <time>2013-06-22T16:25:40Z</time>
      </trkpt>
      <trkpt lat="42.707906" lon="-4.309940">
        <ele>967.156</ele>
        <time>2013-06-22T16:30:25Z</time>
      </trkpt>
      <trkpt lat="42.708517" lon="-4.309065">
        <ele>972.918</ele>
        <time>2013-06-22T16:32:10Z</time>
      </trkpt>
      <trkpt lat="42.709257" lon="-4.308423">
        <ele>979.041</ele>
        <time>2013-06-22T16:33:55Z</time>
      </trkpt>
      <trkpt lat="42.710080" lon="-4.307177">
        <ele>980.945</ele>
        <time>2013-06-22T16:37:25Z</time>
      </trkpt>
      <trkpt lat="42.710418" lon="-4.306996">
        <ele>978.029</ele>
        <time>2013-06-22T16:38:13Z</time>
      </trkpt>
      <trkpt lat="42.711013" lon="-4.307177">
        <ele>972.500</ele>
        <time>2013-06-22T16:39:40Z</time>
      </trkpt>
      <trkpt lat="42.711672" lon="-4.306353">
        <ele>952.620</ele>
        <time>2013-06-22T16:40:58Z</time>
      </trkpt>
      <trkpt lat="42.711809" lon="-4.305745">
        <ele>943.007</ele>
        <time>2013-06-22T16:42:13Z</time>
      </trkpt>
      <trkpt lat="42.711737" lon="-4.304667">
        <ele>931.336</ele>
        <time>2013-06-22T16:43:49Z</time>
      </trkpt>
      <trkpt lat="42.711303" lon="-4.303456">
        <ele>921.949</ele>
        <time>2013-06-22T16:46:25Z</time>
      </trkpt>
      <trkpt lat="42.710817" lon="-4.302885">
        <ele>907.973</ele>
        <time>2013-06-22T16:47:43Z</time>
      </trkpt>
      <trkpt lat="42.711099" lon="-4.302561">
        <ele>905.696</ele>
        <time>2013-06-22T16:49:01Z</time>
      </trkpt>
      <trkpt lat="42.711969" lon="-4.302342">
        <ele>904.878</ele>
        <time>2013-06-22T16:51:14Z</time>
      </trkpt>
      <trkpt lat="42.712564" lon="-4.301824">
        <ele>894.261</ele>
        <time>2013-06-22T16:53:07Z</time>
      </trkpt>
      <trkpt lat="42.713648" lon="-4.301551">
        <ele>888.685</ele>
        <time>2013-06-22T16:54:57Z</time>
      </trkpt>
      <trkpt lat="42.713969" lon="-4.301239">
        <ele>885.083</ele>
        <time>2013-06-22T16:57:22Z</time>
      </trkpt>
      <trkpt lat="42.714193" lon="-4.299971">
        <ele>883.725</ele>
        <time>2013-06-22T16:59:32Z</time>
      </trkpt>
      <trkpt lat="42.713770" lon="-4.298407">
        <ele>882.917</ele>
        <time>2013-06-22T17:01:58Z</time>
      </trkpt>
      <trkpt lat="42.713580" lon="-4.296237">
        <ele>879.207</ele>
        <time>2013-06-22T17:05:16Z</time>
      </trkpt>
      <trkpt lat="42.714209" lon="-4.295251">
        <ele>877.442</ele>
        <time>2013-06-22T17:08:34Z</time>
      </trkpt>
      <trkpt lat="42.714398" lon="-4.294489">
        <ele>876.935</ele>
        <time>2013-06-22T17:09:28Z</time>
      </trkpt>
      <trkpt lat="42.714076" lon="-4.292777">
        <ele>874.359</ele>
        <time>2013-06-22T17:12:49Z</time>
      </trkpt>
      <trkpt lat="42.714129" lon="-4.292884">
        <ele>875.172</ele>
        <time>2013-06-22T17:15:04Z</time>
      </trkpt>
      <trkpt lat="42.714328" lon="-4.292641">
        <ele>873.934</ele>
        <time>2013-06-22T17:16:25Z</time>
      </trkpt>
      <trkpt lat="42.714676" lon="-4.292880">
        <ele>876.737</ele>
        <time>2013-06-22T17:17:07Z</time>
      </trkpt>
      <trkpt lat="42.714969" lon="-4.292744">
        <ele>874.831</ele>
        <time>2013-06-22T17:17:43Z</time>
      </trkpt>
      <trkpt lat="42.715023" lon="-4.292196">
        <ele>872.928</ele>
        <time>2013-06-22T17:18:25Z</time>
      </trkpt>
      <trkpt lat="42.716263" lon="-4.291425">
        <ele>871.889</ele>
        <time>2013-06-22T17:21:13Z</time>
      </trkpt>
      <trkpt lat="42.716669" lon="-4.290981">
        <ele>872.017</ele>
        <time>2013-06-22T17:22:55Z</time>
      </trkpt>
      <trkpt lat="42.716693" lon="-4.290619">
        <ele>872.007</ele>
        <time>2013-06-22T17:23:34Z</time>
      </trkpt>
      <trkpt lat="42.717040" lon="-4.290484">
        <ele>871.726</ele>
        <time>2013-06-22T17:24:10Z</time>
      </trkpt>
      <trkpt lat="42.717444" lon="-4.289744">
        <ele>877.829</ele>
        <time>2013-06-22T17:25:10Z</time>
      </trkpt>
      <trkpt lat="42.717759" lon="-4.289770">
        <ele>875.853</ele>
        <time>2013-06-22T17:25:28Z</time>
      </trkpt>
      <trkpt lat="42.717833" lon="-4.288818">
        <ele>870.926</ele>
        <time>2013-06-22T17:26:46Z</time>
      </trkpt>
      <trkpt lat="42.718525" lon="-4.288590">
        <ele>871.028</ele>
        <time>2013-06-22T17:28:10Z</time>
      </trkpt>
      <trkpt lat="42.720391" lon="-4.286308">
        <ele>871.391</ele>
        <time>2013-06-22T17:32:52Z</time>
      </trkpt>
      <trkpt lat="42.721014" lon="-4.285421">
        <ele>870.355</ele>
        <time>2013-06-22T17:34:28Z</time>
      </trkpt>
      <trkpt lat="42.721496" lon="-4.284184">
        <ele>869.041</ele>
        <time>2013-06-22T17:36:28Z</time>
      </trkpt>
      <trkpt lat="42.721394" lon="-4.276492">
        <ele>869.081</ele>
        <time>2013-06-22T17:46:40Z</time>
      </trkpt>
      <trkpt lat="42.721568" lon="-4.274853">
        <ele>870.409</ele>
        <time>2013-06-22T17:49:13Z</time>
      </trkpt>
      <trkpt lat="42.722203" lon="-4.275058">
        <ele>869.907</ele>
        <time>2013-06-22T17:50:26Z</time>
      </trkpt>
    </trkseg>
  </trk></gpx>